createdAt,value
2023-05-01T00:02:22.854Z,100.00
2023-05-01T00:04:53.205Z,100.00
2023-05-01T00:07:23.388Z,100.00
2023-05-01T00:09:54.393Z,100.00
2023-05-01T00:12:24.770Z,100.00
2023-05-01T00:14:58.051Z,100.00
2023-05-01T00:17:28.504Z,100.00
2023-05-01T00:19:59.203Z,100.00
2023-05-01T00:22:29.529Z,100.00
2023-05-01T00:24:59.686Z,100.00
2023-05-01T00:27:29.942Z,100.00
2023-05-01T00:30:03.658Z,100.00
2023-05-01T00:32:34.674Z,100.00
2023-05-01T00:35:04.888Z,100.00
2023-05-01T00:37:35.334Z,100.00
2023-05-01T00:40:05.506Z,100.00
2023-05-01T00:42:42.652Z,100.00
2023-05-01T00:45:16.713Z,100.00
2023-05-01T00:47:50.777Z,100.00
2023-05-01T00:50:21.351Z,100.00
2023-05-01T00:52:51.623Z,100.00
2023-05-01T00:55:22.140Z,100.00
2023-05-01T00:57:53.028Z,100.00
2023-05-01T01:00:26.382Z,100.00
2023-05-01T01:02:56.757Z,100.00
2023-05-01T01:05:30.824Z,100.00
2023-05-01T01:08:14.127Z,100.00
2023-05-01T01:10:54.062Z,100.00
2023-05-01T01:13:31.255Z,100.00
2023-05-01T01:16:12.729Z,100.00
2023-05-01T01:18:51.570Z,100.00
2023-05-01T01:21:28.924Z,100.00
2023-05-01T01:24:25.262Z,100.00
2023-05-01T01:27:14.142Z,100.00
2023-05-01T01:29:58.159Z,100.00
2023-05-01T01:33:04.028Z,100.00
2023-05-01T01:35:40.157Z,100.00
2023-05-01T01:38:19.060Z,100.00
2023-05-01T01:41:00.189Z,100.00
2023-05-01T01:43:36.124Z,100.00
2023-05-01T01:46:09.797Z,100.00
2023-05-01T01:48:41.651Z,100.00
2023-05-01T01:51:19.527Z,100.00
2023-05-01T01:53:54.812Z,100.00
2023-05-01T01:56:29.018Z,100.00
2023-05-01T01:59:00.006Z,100.00
2023-05-01T02:01:32.069Z,100.00
2023-05-01T02:04:04.175Z,100.00
2023-05-01T02:06:38.319Z,100.00
2023-05-01T02:09:10.006Z,100.00
2023-05-01T02:11:42.329Z,100.00
2023-05-01T02:14:14.494Z,100.00
2023-05-01T02:16:46.530Z,100.00
2023-05-01T02:19:18.357Z,100.00
2023-05-01T02:21:53.417Z,100.00
2023-05-01T02:24:27.099Z,100.00
2023-05-01T02:26:59.926Z,100.00
2023-05-01T02:29:31.048Z,100.00
2023-05-01T02:32:01.288Z,100.00
2023-05-01T02:34:31.535Z,100.00
2023-05-01T02:37:04.641Z,100.00
2023-05-01T02:39:35.412Z,100.00
2023-05-01T02:42:07.775Z,100.00
2023-05-01T02:44:46.553Z,100.00
2023-05-01T02:47:20.721Z,100.00
2023-05-01T02:49:52.386Z,100.00
2023-05-01T02:52:26.031Z,100.00
2023-05-01T02:55:07.260Z,100.00
2023-05-01T02:57:37.709Z,100.00
2023-05-01T03:00:09.628Z,100.00
2023-05-01T03:02:39.910Z,100.00
2023-05-01T03:05:11.062Z,100.00
2023-05-01T03:07:43.889Z,100.00
2023-05-01T03:10:14.843Z,100.00
2023-05-01T03:12:45.027Z,100.00
2023-05-01T03:15:16.709Z,100.00
2023-05-01T03:17:46.998Z,100.00
2023-05-01T03:20:17.454Z,100.00
2023-05-01T03:22:50.230Z,100.00
2023-05-01T03:25:20.655Z,100.00
2023-05-01T03:27:54.247Z,100.00
2023-05-01T03:30:28.219Z,100.00
2023-05-01T03:32:58.552Z,100.00
2023-05-01T03:35:33.808Z,100.00
2023-05-01T03:38:06.790Z,100.00
2023-05-01T03:40:55.252Z,100.00
2023-05-01T03:43:51.313Z,100.00
2023-05-01T03:46:41.206Z,100.00
2023-05-01T03:49:17.456Z,100.00
2023-05-01T03:51:50.821Z,100.00
2023-05-01T03:54:24.799Z,100.00
2023-05-01T03:57:01.760Z,100.00
2023-05-01T03:59:31.936Z,100.00
2023-05-01T04:02:02.228Z,100.00
2023-05-01T04:04:36.330Z,100.00
2023-05-01T04:07:07.177Z,100.00
2023-05-01T04:09:40.103Z,100.00
2023-05-01T04:12:10.689Z,99.30
2023-05-01T04:14:40.865Z,100.00
2023-05-01T04:17:11.082Z,100.00
2023-05-01T04:19:41.456Z,99.11
2023-05-01T04:22:11.694Z,99.35
2023-05-01T04:24:45.925Z,100.00
2023-05-01T04:27:16.168Z,100.00
2023-05-01T04:29:46.462Z,100.00
2023-05-01T04:32:17.426Z,100.00
2023-05-01T04:34:47.704Z,100.00
2023-05-01T04:37:18.895Z,97.99
2023-05-01T04:39:52.031Z,98.15
2023-05-01T04:42:32.868Z,96.86
2023-05-01T04:45:04.610Z,93.04
2023-05-01T04:47:39.090Z,93.43
2023-05-01T04:50:10.302Z,91.00
2023-05-01T04:52:40.552Z,89.82
2023-05-01T04:55:13.783Z,87.76
2023-05-01T04:58:02.906Z,87.36
2023-05-01T05:00:34.191Z,84.28
2023-05-01T05:03:05.497Z,81.42
2023-05-01T05:05:35.894Z,80.60
2023-05-01T05:08:09.632Z,80.86
2023-05-01T05:11:00.772Z,79.14
2023-05-01T05:13:39.125Z,77.81
2023-05-01T05:16:15.340Z,75.60
2023-05-01T05:18:45.686Z,75.61
2023-05-01T05:21:16.139Z,75.94
2023-05-01T05:23:56.288Z,75.87
2023-05-01T05:26:29.399Z,76.64
2023-05-01T05:29:03.925Z,73.92
2023-05-01T05:31:34.165Z,74.61
2023-05-01T05:34:04.649Z,70.61
2023-05-01T05:36:35.781Z,70.48
2023-05-01T05:39:06.082Z,68.84
2023-05-01T05:41:39.534Z,68.66
2023-05-01T05:44:09.695Z,68.43
2023-05-01T05:46:39.915Z,67.75
2023-05-01T05:49:10.368Z,67.54
2023-05-01T05:51:40.606Z,66.21
2023-05-01T05:54:12.325Z,65.33
2023-05-01T05:56:45.215Z,65.58
2023-05-01T05:59:17.280Z,64.41
2023-05-01T06:01:48.152Z,62.83
2023-05-01T06:04:18.619Z,63.10
2023-05-01T06:06:49.089Z,61.90
2023-05-01T06:09:19.399Z,61.86
2023-05-01T06:11:52.383Z,59.17
2023-05-01T06:14:22.570Z,59.73
2023-05-01T06:16:52.838Z,57.96
2023-05-01T06:19:23.394Z,56.20
2023-05-01T06:21:58.345Z,55.68
2023-05-01T06:24:29.869Z,54.61
2023-05-01T06:27:05.228Z,54.10
2023-05-01T06:29:35.662Z,52.36
2023-05-01T06:32:06.054Z,52.67
2023-05-01T06:34:38.159Z,50.91
2023-05-01T06:37:08.371Z,50.23
2023-05-01T06:39:38.601Z,50.50
2023-05-01T06:42:15.965Z,50.41
2023-05-01T06:44:46.243Z,50.13
2023-05-01T06:47:16.478Z,48.36
2023-05-01T06:49:46.674Z,48.81
2023-05-01T06:52:16.821Z,49.13
2023-05-01T06:54:46.971Z,48.07
2023-05-01T06:57:20.619Z,48.98
2023-05-01T06:59:50.780Z,47.33
2023-05-01T07:02:21.344Z,45.48
2023-05-01T07:04:51.646Z,46.25
2023-05-01T07:07:23.111Z,46.30
2023-05-01T07:09:53.550Z,46.99
2023-05-01T07:12:26.364Z,46.84
2023-05-01T07:14:57.139Z,46.40
2023-05-01T07:17:27.676Z,46.41
2023-05-01T07:19:58.095Z,46.36
2023-05-01T07:22:29.178Z,44.39
2023-05-01T07:25:01.437Z,45.50
2023-05-01T07:27:34.235Z,44.90
2023-05-01T07:30:05.421Z,44.06
2023-05-01T07:32:35.689Z,43.76
2023-05-01T07:35:05.851Z,43.83
2023-05-01T07:37:36.121Z,42.89
2023-05-01T07:40:07.615Z,41.79
2023-05-01T07:42:40.381Z,42.00
2023-05-01T07:45:11.998Z,42.74
2023-05-01T07:47:42.326Z,44.62
2023-05-01T07:50:14.220Z,41.67
2023-05-01T07:52:44.812Z,42.89
2023-05-01T07:55:15.294Z,41.51
2023-05-01T07:57:48.023Z,43.95
2023-05-01T08:00:19.446Z,42.39
2023-05-01T08:02:56.549Z,42.70
2023-05-01T08:05:28.809Z,39.18
2023-05-01T08:08:05.154Z,41.22
2023-05-01T08:10:38.849Z,39.35
2023-05-01T08:13:19.661Z,40.93
2023-05-01T08:15:57.184Z,40.55
2023-05-01T08:18:27.994Z,42.80
2023-05-01T08:21:03.076Z,42.12
2023-05-01T08:23:37.396Z,41.14
2023-05-01T08:26:12.944Z,42.42
2023-05-01T08:28:52.204Z,40.72
2023-05-01T08:31:28.827Z,40.31
2023-05-01T08:34:04.209Z,42.21
2023-05-01T08:36:39.108Z,41.59
2023-05-01T08:39:17.036Z,41.02
2023-05-01T08:41:52.942Z,41.15
2023-05-01T08:44:31.034Z,40.03
2023-05-01T08:47:12.716Z,41.15
2023-05-01T08:49:50.525Z,41.78
2023-05-01T08:52:28.661Z,40.51
2023-05-01T08:55:01.683Z,38.47
2023-05-01T08:57:33.645Z,38.73
2023-05-01T09:00:08.035Z,40.17
2023-05-01T09:02:39.655Z,40.24
2023-05-01T09:05:11.708Z,40.00
2023-05-01T09:07:43.967Z,40.72
2023-05-01T09:10:15.004Z,41.10
2023-05-01T09:12:46.406Z,40.81
2023-05-01T09:15:20.112Z,42.23
2023-05-01T09:17:51.255Z,43.06
2023-05-01T09:20:22.694Z,40.19
2023-05-01T09:22:53.266Z,39.14
2023-05-01T09:25:23.424Z,39.55
2023-05-01T09:27:54.146Z,42.43
2023-05-01T09:30:37.913Z,41.93
2023-05-01T09:33:09.584Z,44.41
2023-05-01T09:35:53.759Z,42.10
2023-05-01T09:38:28.426Z,41.54
2023-05-01T09:41:07.019Z,41.06
2023-05-01T09:43:37.272Z,39.71
2023-05-01T09:46:12.214Z,41.48
2023-05-01T09:48:42.547Z,40.92
2023-05-01T09:51:27.285Z,41.96
2023-05-01T09:53:59.422Z,41.08
2023-05-01T09:56:30.363Z,40.77
2023-05-01T09:59:01.841Z,41.75
2023-05-01T10:01:46.735Z,42.61
2023-05-01T10:04:17.754Z,42.83
2023-05-01T10:06:47.954Z,43.80
2023-05-01T10:09:30.682Z,42.81
2023-05-01T10:12:01.257Z,43.88
2023-05-01T10:14:34.018Z,41.69
2023-05-01T10:17:22.513Z,44.41
2023-05-01T10:19:53.713Z,44.47
2023-05-01T10:22:24.020Z,43.73
2023-05-01T10:24:54.618Z,44.37
2023-05-01T10:27:27.753Z,43.96
2023-05-01T10:29:58.406Z,44.03
2023-05-01T10:32:32.720Z,47.68
2023-05-01T10:35:07.264Z,45.42
2023-05-01T10:37:43.790Z,44.42
2023-05-01T10:40:52.919Z,50.68
2023-05-01T10:43:28.077Z,44.63
2023-05-01T10:46:19.415Z,43.90
2023-05-01T10:49:02.162Z,45.21
2023-05-01T10:51:32.485Z,45.64
2023-05-01T10:54:27.684Z,44.76
2023-05-01T10:57:01.505Z,45.65
2023-05-01T10:59:51.823Z,45.51
2023-05-01T11:02:26.740Z,47.25
2023-05-01T11:05:00.059Z,45.00
2023-05-01T11:07:31.826Z,44.54
2023-05-01T11:10:02.395Z,45.10
2023-05-01T11:12:54.538Z,43.80
2023-05-01T11:15:34.026Z,44.35
2023-05-01T11:18:06.320Z,45.58
2023-05-01T11:21:06.086Z,44.79
2023-05-01T11:23:36.317Z,45.80
2023-05-01T11:26:10.269Z,44.23
2023-05-01T11:28:42.689Z,44.71
2023-05-01T11:31:13.565Z,45.12
2023-05-01T11:33:43.802Z,44.41
2023-05-01T11:36:17.278Z,46.83
2023-05-01T11:38:53.969Z,45.38
2023-05-01T11:41:24.532Z,48.06
2023-05-01T11:43:55.581Z,46.21
2023-05-01T11:46:32.402Z,49.26
2023-05-01T11:49:04.138Z,47.17
2023-05-01T11:51:37.029Z,47.48
2023-05-01T11:54:09.512Z,46.71
2023-05-01T11:56:41.254Z,44.86
2023-05-01T11:59:17.385Z,46.88
2023-05-01T12:01:50.037Z,47.98
2023-05-01T12:04:31.949Z,42.62
2023-05-01T12:07:07.255Z,45.66
2023-05-01T12:09:37.837Z,42.79
2023-05-01T12:12:09.120Z,48.41
2023-05-01T12:14:39.594Z,43.72
2023-05-01T12:17:12.157Z,43.75
2023-05-01T12:19:52.030Z,45.03
2023-05-01T12:22:25.144Z,45.67
2023-05-01T12:24:56.442Z,44.01
2023-05-01T12:27:28.831Z,43.63
2023-05-01T12:30:00.318Z,42.99
2023-05-01T12:32:35.202Z,45.10
2023-05-01T12:35:16.342Z,45.22
2023-05-01T12:37:50.163Z,45.44
2023-05-01T12:40:23.138Z,43.77
2023-05-01T12:42:59.473Z,44.34
2023-05-01T12:45:30.226Z,46.20
2023-05-01T12:48:00.558Z,42.04
2023-05-01T12:50:30.872Z,43.41
2023-05-01T12:53:09.920Z,42.90
2023-05-01T12:55:48.908Z,43.03
2023-05-01T12:58:19.725Z,43.11
2023-05-01T13:00:52.717Z,43.72
2023-05-01T13:03:28.212Z,42.80
2023-05-01T13:06:01.065Z,44.26
2023-05-01T13:08:36.792Z,46.75
2023-05-01T13:11:13.663Z,43.87
2023-05-01T13:13:44.204Z,46.33
2023-05-01T13:16:16.612Z,46.58
2023-05-01T13:18:48.366Z,44.87
2023-05-01T13:21:19.893Z,44.71
2023-05-01T13:24:01.871Z,42.67
2023-05-01T13:26:33.836Z,43.92
2023-05-01T13:29:06.027Z,42.30
2023-05-01T13:31:39.311Z,44.43
2023-05-01T13:34:09.589Z,42.15
2023-05-01T13:36:40.259Z,43.52
2023-05-01T13:39:13.129Z,44.49
2023-05-01T13:41:46.873Z,42.63
2023-05-01T13:44:17.957Z,44.65
2023-05-01T13:46:49.350Z,44.39
2023-05-01T13:49:23.746Z,44.84
2023-05-01T13:51:55.650Z,43.48
2023-05-01T13:54:30.323Z,43.17
2023-05-01T13:57:00.956Z,42.25
2023-05-01T13:59:38.802Z,43.48
2023-05-01T14:02:23.704Z,43.80
2023-05-01T14:04:54.168Z,42.44
2023-05-01T14:07:26.020Z,42.27
2023-05-01T14:10:00.097Z,44.28
2023-05-01T14:12:32.808Z,42.04
2023-05-01T14:15:03.741Z,42.57
2023-05-01T14:17:36.050Z,42.42
2023-05-01T14:20:07.194Z,42.21
2023-05-01T14:22:45.900Z,41.24
2023-05-01T14:25:26.650Z,40.39
2023-05-01T14:27:58.276Z,40.15
2023-05-01T14:30:33.788Z,40.36
2023-05-01T14:33:05.197Z,40.25
2023-05-01T14:35:35.658Z,40.57
2023-05-01T14:38:11.926Z,40.97
2023-05-01T14:40:46.397Z,40.33
2023-05-01T14:43:21.383Z,42.99
2023-05-01T14:45:53.127Z,41.34
2023-05-01T14:48:26.146Z,41.52
2023-05-01T14:50:58.360Z,39.66
2023-05-01T14:53:29.408Z,40.51
2023-05-01T14:56:02.376Z,39.52
2023-05-01T14:58:32.713Z,40.82
2023-05-01T15:01:03.209Z,41.15
2023-05-01T15:03:33.934Z,40.54
2023-05-01T15:06:07.378Z,39.57
2023-05-01T15:08:38.377Z,40.08
2023-05-01T15:11:11.695Z,40.11
2023-05-01T15:13:42.851Z,40.80
2023-05-01T15:16:13.800Z,40.33
2023-05-01T15:18:46.431Z,39.93
2023-05-01T15:21:16.675Z,40.97
2023-05-01T15:23:47.204Z,40.41
2023-05-01T15:26:23.092Z,39.71
2023-05-01T15:28:53.960Z,41.26
2023-05-01T15:31:28.222Z,41.23
2023-05-01T15:33:58.521Z,40.41
2023-05-01T15:36:28.999Z,40.34
2023-05-01T15:38:59.266Z,42.17
2023-05-01T15:41:32.132Z,40.52
2023-05-01T15:44:02.400Z,39.64
2023-05-01T15:46:32.684Z,40.53
2023-05-01T15:49:03.064Z,39.89
2023-05-01T15:51:37.535Z,40.93
2023-05-01T15:54:09.471Z,40.79
2023-05-01T15:56:42.603Z,40.38
2023-05-01T15:59:14.567Z,41.32
2023-05-01T16:01:46.000Z,42.17
2023-05-01T16:04:17.895Z,42.43
2023-05-01T16:06:50.548Z,42.35
2023-05-01T16:09:21.572Z,41.86
2023-05-01T16:11:54.508Z,42.39
2023-05-01T16:14:24.705Z,41.67
2023-05-01T16:16:55.340Z,42.54
2023-05-01T16:19:25.627Z,42.07
2023-05-01T16:21:55.835Z,43.03
2023-05-01T16:24:28.369Z,42.99
2023-05-01T16:27:01.187Z,43.10
2023-05-01T16:29:31.910Z,43.34
2023-05-01T16:32:02.253Z,45.59
2023-05-01T16:34:32.477Z,44.09
2023-05-01T16:37:02.711Z,43.51
2023-05-01T16:39:32.918Z,43.45
2023-05-01T16:42:06.521Z,44.29
2023-05-01T16:44:39.409Z,43.90
2023-05-01T16:47:09.842Z,44.78
2023-05-01T16:49:43.864Z,44.90
2023-05-01T16:52:15.832Z,46.26
2023-05-01T16:54:46.214Z,46.15
2023-05-01T16:57:19.288Z,46.73
2023-05-01T16:59:49.449Z,46.70
2023-05-01T17:02:19.798Z,46.92
2023-05-01T17:04:50.240Z,46.24
2023-05-01T17:07:20.545Z,46.94
2023-05-01T17:09:50.738Z,46.22
2023-05-01T17:12:23.623Z,47.21
2023-05-01T17:14:54.442Z,47.35
2023-05-01T17:17:25.317Z,47.91
2023-05-01T17:19:55.689Z,47.60
2023-05-01T17:22:27.859Z,48.30
2023-05-01T17:25:02.507Z,48.78
2023-05-01T17:27:35.310Z,49.13
2023-05-01T17:30:05.508Z,48.45
2023-05-01T17:32:37.416Z,48.82
2023-05-01T17:35:09.240Z,50.05
2023-05-01T17:37:40.416Z,50.21
2023-05-01T17:40:13.226Z,51.03
2023-05-01T17:42:46.020Z,50.83
2023-05-01T17:45:19.076Z,50.66
2023-05-01T17:47:49.284Z,51.22
2023-05-01T17:50:19.516Z,50.61
2023-05-01T17:52:49.895Z,51.46
2023-05-01T17:55:20.143Z,52.13
2023-05-01T17:57:53.157Z,51.47
2023-05-01T18:00:24.529Z,52.14
2023-05-01T18:02:54.896Z,51.70
2023-05-01T18:05:25.654Z,52.61
2023-05-01T18:07:56.242Z,52.89
2023-05-01T18:10:30.418Z,52.68
2023-05-01T18:13:03.267Z,53.11
2023-05-01T18:15:36.622Z,53.97
2023-05-01T18:18:07.050Z,53.88
2023-05-01T18:20:37.375Z,54.93
2023-05-01T18:23:08.140Z,55.37
2023-05-01T18:25:42.272Z,55.70
2023-05-01T18:28:16.642Z,57.19
2023-05-01T18:30:47.155Z,58.52
2023-05-01T18:33:19.368Z,59.29
2023-05-01T18:35:49.599Z,59.76
2023-05-01T18:38:19.810Z,59.92
2023-05-01T18:40:50.286Z,60.85
2023-05-01T18:43:23.126Z,62.22
2023-05-01T18:45:53.601Z,62.96
2023-05-01T18:48:23.854Z,62.18
2023-05-01T18:51:07.196Z,61.97
2023-05-01T18:53:39.031Z,63.82
2023-05-01T18:56:09.750Z,63.95
2023-05-01T18:58:42.603Z,63.99
2023-05-01T19:01:12.906Z,65.23
2023-05-01T19:03:43.141Z,63.51
2023-05-01T19:06:13.512Z,63.42
2023-05-01T19:08:43.756Z,62.26
2023-05-01T19:11:14.075Z,62.60
2023-05-01T19:13:47.181Z,62.43
2023-05-01T19:16:17.524Z,62.93
2023-05-01T19:18:48.629Z,63.69
2023-05-01T19:21:19.004Z,63.52
2023-05-01T19:23:49.888Z,63.99
2023-05-01T19:26:20.082Z,64.25
2023-05-01T19:28:52.862Z,64.30
2023-05-01T19:31:25.436Z,64.21
2023-05-01T19:33:56.899Z,65.01
2023-05-01T19:36:27.106Z,65.41
2023-05-01T19:38:57.261Z,64.61
2023-05-01T19:41:27.533Z,64.98
2023-05-01T19:44:00.285Z,63.87
2023-05-01T19:46:30.619Z,64.50
2023-05-01T19:49:00.849Z,64.40
2023-05-01T19:51:33.256Z,65.14
2023-05-01T19:54:05.048Z,66.03
2023-05-01T19:56:35.345Z,65.81
2023-05-01T19:59:08.163Z,65.88
2023-05-01T20:01:39.185Z,66.19
2023-05-01T20:04:09.430Z,65.70
2023-05-01T20:06:39.799Z,66.30
2023-05-01T20:09:10.007Z,65.95
2023-05-01T20:11:40.227Z,65.22
2023-05-01T20:14:13.097Z,65.79
2023-05-01T20:16:43.436Z,66.44
2023-05-01T20:19:14.133Z,67.38
2023-05-01T20:21:44.334Z,68.23
2023-05-01T20:24:14.531Z,68.37
2023-05-01T20:26:44.818Z,68.68
2023-05-01T20:29:17.571Z,69.04
2023-05-01T20:31:47.742Z,70.83
2023-05-01T20:34:17.913Z,71.06
2023-05-01T20:36:48.260Z,71.48
2023-05-01T20:39:18.483Z,72.21
2023-05-01T20:41:48.683Z,72.02
2023-05-01T20:44:21.538Z,72.74
2023-05-01T20:46:51.897Z,73.23
2023-05-01T20:49:22.122Z,72.78
2023-05-01T20:51:52.329Z,73.17
2023-05-01T20:54:22.640Z,73.07
2023-05-01T20:56:52.790Z,70.32
2023-05-01T20:59:25.630Z,71.94
2023-05-01T21:01:56.144Z,72.91
2023-05-01T21:04:26.758Z,74.11
2023-05-01T21:06:57.049Z,72.40
2023-05-01T21:09:27.266Z,71.74
2023-05-01T21:11:57.698Z,72.34
2023-05-01T21:14:30.998Z,72.49
2023-05-01T21:17:03.773Z,73.82
2023-05-01T21:19:35.765Z,73.83
2023-05-01T21:22:16.953Z,73.71
2023-05-01T21:24:48.024Z,73.34
2023-05-01T21:27:18.697Z,73.45
2023-05-01T21:29:58.008Z,74.16
2023-05-01T21:32:32.792Z,72.10
2023-05-01T21:35:03.897Z,72.37
2023-05-01T21:37:34.167Z,73.70
2023-05-01T21:40:05.101Z,74.79
2023-05-01T21:42:42.448Z,74.79
2023-05-01T21:45:17.670Z,75.50
2023-05-01T21:47:50.425Z,75.84
2023-05-01T21:50:22.154Z,76.98
2023-05-01T21:52:53.473Z,77.10
2023-05-01T21:55:25.507Z,79.02
2023-05-01T21:57:56.188Z,77.83
2023-05-01T22:00:32.450Z,78.46
2023-05-01T22:03:04.346Z,78.56
2023-05-01T22:05:36.041Z,78.64
2023-05-01T22:08:06.290Z,79.09
2023-05-01T22:10:37.080Z,80.06
2023-05-01T22:13:09.843Z,80.68
2023-05-01T22:15:44.039Z,79.15
2023-05-01T22:18:18.054Z,78.79
2023-05-01T22:20:48.536Z,78.63
2023-05-01T22:23:18.724Z,79.29
2023-05-01T22:25:49.055Z,78.80
2023-05-01T22:28:20.912Z,79.52
2023-05-01T22:30:54.396Z,79.55
2023-05-01T22:33:24.596Z,79.68
2023-05-01T22:35:56.642Z,79.26
2023-05-01T22:38:26.963Z,79.36
2023-05-01T22:40:57.418Z,78.59
2023-05-01T22:43:27.593Z,77.69
2023-05-01T22:46:00.814Z,79.57
2023-05-01T22:48:31.224Z,79.34
2023-05-01T22:51:01.565Z,80.31
2023-05-01T22:53:31.823Z,78.40
2023-05-01T22:56:02.188Z,78.13
2023-05-01T22:58:32.435Z,78.33
2023-05-01T23:01:05.434Z,78.68
2023-05-01T23:03:38.012Z,78.70
2023-05-01T23:06:11.947Z,78.24
2023-05-01T23:08:42.131Z,78.71
2023-05-01T23:11:14.276Z,78.96
2023-05-01T23:13:49.416Z,79.47
2023-05-01T23:16:22.470Z,79.54
2023-05-01T23:18:52.715Z,80.57
2023-05-01T23:21:23.012Z,80.25
2023-05-01T23:23:53.202Z,80.96
2023-05-01T23:26:29.019Z,80.95
2023-05-01T23:29:00.236Z,81.90
2023-05-01T23:31:33.045Z,82.94
2023-05-01T23:34:05.292Z,83.18
2023-05-01T23:36:35.605Z,83.65
2023-05-01T23:39:06.240Z,83.81
2023-05-01T23:41:36.390Z,83.79
2023-05-01T23:44:06.741Z,83.36
2023-05-01T23:46:39.944Z,84.87
2023-05-01T23:49:10.250Z,86.69
2023-05-01T23:51:40.613Z,86.84
2023-05-01T23:54:11.156Z,88.14
2023-05-01T23:56:41.371Z,89.79
2023-05-01T23:59:12.167Z,89.83
